sensor_id;sensor_type;location;lat;lon;timestamp;pressure;altitude;pressure_sealevel;temperature;humidity
3250;BME280;1637;42.020;23.992;2023-02-08T00:01:14;94033.94;;;-9.79;79.93
3250;BME280;1637;42.020;23.992;2023-02-08T00:03:43;94085.03;;;-9.47;79.22
3250;BME280;1637;42.020;23.992;2023-02-08T00:06:10;94072.78;;;-9.52;79.55
3250;BME280;1637;42.020;23.992;2023-02-08T00:08:38;94082.88;;;-9.55;79.96
3250;BME280;1637;42.020;23.992;2023-02-08T00:11:05;94087.97;;;-9.65;79.82
3250;BME280;1637;42.020;23.992;2023-02-08T00:13:35;94085.00;;;-9.74;80.30
3250;BME280;1637;42.020;23.992;2023-02-08T00:16:03;94086.69;;;-9.63;80.18
3250;BME280;1637;42.020;23.992;2023-02-08T00:18:30;94097.75;;;-9.73;80.49
3250;BME280;1637;42.020;23.992;2023-02-08T00:20:58;94094.38;;;-9.73;80.67
3250;BME280;1637;42.020;23.992;2023-02-08T00:23:25;94095.13;;;-9.78;80.33
3250;BME280;1637;42.020;23.992;2023-02-08T00:25:52;94101.19;;;-9.89;81.16
3250;BME280;1637;42.020;23.992;2023-02-08T00:28:19;94101.81;;;-9.82;80.49
3250;BME280;1637;42.020;23.992;2023-02-08T00:30:46;94099.09;;;-9.92;80.38
3250;BME280;1637;42.020;23.992;2023-02-08T00:33:12;94096.25;;;-9.90;80.92
3250;BME280;1637;42.020;23.992;2023-02-08T00:35:39;94061.72;;;-10.23;80.39
3250;BME280;1637;42.020;23.992;2023-02-08T00:38:08;94105.19;;;-9.81;80.38
3250;BME280;1637;42.020;23.992;2023-02-08T00:40:35;94104.09;;;-10.07;81.12
3250;BME280;1637;42.020;23.992;2023-02-08T00:43:02;94114.22;;;-10.06;80.65
3250;BME280;1637;42.020;23.992;2023-02-08T00:45:30;94106.84;;;-10.19;81.30
3250;BME280;1637;42.020;23.992;2023-02-08T00:47:57;94105.59;;;-10.11;80.72
3250;BME280;1637;42.020;23.992;2023-02-08T00:50:24;94102.69;;;-10.20;81.42
3250;BME280;1637;42.020;23.992;2023-02-08T00:52:51;94109.59;;;-10.25;81.58
3250;BME280;1637;42.020;23.992;2023-02-08T00:55:19;94100.25;;;-10.26;82.00
3250;BME280;1637;42.020;23.992;2023-02-08T00:57:46;94100.88;;;-10.19;80.46
3250;BME280;1637;42.020;23.992;2023-02-08T01:00:14;94117.44;;;-10.20;81.27
3250;BME280;1637;42.020;23.992;2023-02-08T01:02:40;94110.94;;;-10.18;81.13
3250;BME280;1637;42.020;23.992;2023-02-08T01:05:08;94082.69;;;-10.24;81.13
3250;BME280;1637;42.020;23.992;2023-02-08T01:07:35;94098.88;;;-10.34;81.14
3250;BME280;1637;42.020;23.992;2023-02-08T01:10:03;94099.84;;;-10.40;81.99
3250;BME280;1637;42.020;23.992;2023-02-08T01:12:31;94104.81;;;-10.33;82.06
3250;BME280;1637;42.020;23.992;2023-02-08T01:14:58;94094.72;;;-10.35;82.53
3250;BME280;1637;42.020;23.992;2023-02-08T01:17:25;94105.50;;;-10.43;82.36
3250;BME280;1637;42.020;23.992;2023-02-08T01:19:52;94096.88;;;-10.49;82.54
3250;BME280;1637;42.020;23.992;2023-02-08T01:22:19;94098.59;;;-10.54;82.04
3250;BME280;1637;42.020;23.992;2023-02-08T01:24:46;94102.59;;;-10.47;82.55
3250;BME280;1637;42.020;23.992;2023-02-08T01:27:12;94098.06;;;-10.34;81.46
3250;BME280;1637;42.020;23.992;2023-02-08T01:29:41;94101.44;;;-10.34;81.34
3250;BME280;1637;42.020;23.992;2023-02-08T01:32:07;94105.38;;;-10.31;80.35
3250;BME280;1637;42.020;23.992;2023-02-08T01:34:35;94098.31;;;-10.36;81.08
3250;BME280;1637;42.020;23.992;2023-02-08T01:37:02;94098.31;;;-10.36;80.70
3250;BME280;1637;42.020;23.992;2023-02-08T01:39:29;94111.22;;;-10.41;80.82
3250;BME280;1637;42.020;23.992;2023-02-08T01:41:56;94099.84;;;-10.57;81.08
3250;BME280;1637;42.020;23.992;2023-02-08T01:47:30;94102.94;;;-10.77;81.72
3250;BME280;1637;42.020;23.992;2023-02-08T01:49:57;94111.41;;;-10.64;82.04
3250;BME280;1637;42.020;23.992;2023-02-08T01:52:26;94112.13;;;-10.69;82.16
3250;BME280;1637;42.020;23.992;2023-02-08T01:54:55;94107.34;;;-10.77;82.48
3250;BME280;1637;42.020;23.992;2023-02-08T01:57:24;94110.63;;;-10.65;82.62
3250;BME280;1637;42.020;23.992;2023-02-08T01:59:53;94116.13;;;-10.78;82.99
3250;BME280;1637;42.020;23.992;2023-02-08T02:02:22;94116.19;;;-10.73;83.73
3250;BME280;1637;42.020;23.992;2023-02-08T02:04:52;94125.16;;;-10.81;82.74
3250;BME280;1637;42.020;23.992;2023-02-08T02:07:20;94103.44;;;-10.96;83.34
3250;BME280;1637;42.020;23.992;2023-02-08T02:09:52;94075.13;;;-11.20;83.36
3250;BME280;1637;42.020;23.992;2023-02-08T02:12:21;94128.81;;;-10.60;82.72
3250;BME280;1637;42.020;23.992;2023-02-08T02:14:48;94127.88;;;-10.70;82.50
3250;BME280;1637;42.020;23.992;2023-02-08T02:17:17;94126.78;;;-10.74;82.82
3250;BME280;1637;42.020;23.992;2023-02-08T02:19:54;94101.16;;;-10.93;82.46
3250;BME280;1637;42.020;23.992;2023-02-08T02:22:51;94130.09;;;-10.62;81.44
3250;BME280;1637;42.020;23.992;2023-02-08T02:28:38;94140.13;;;-10.83;82.11
3250;BME280;1637;42.020;23.992;2023-02-08T02:31:40;94141.94;;;-10.83;82.98
3250;BME280;1637;42.020;23.992;2023-02-08T02:34:19;94141.03;;;-10.55;83.01
3250;BME280;1637;42.020;23.992;2023-02-08T02:36:55;94139.19;;;-10.60;82.47
3250;BME280;1637;42.020;23.992;2023-02-08T02:39:31;94145.28;;;-10.49;82.86
3250;BME280;1637;42.020;23.992;2023-02-08T02:42:06;94150.41;;;-10.32;82.36
3250;BME280;1637;42.020;23.992;2023-02-08T02:45:00;94142.91;;;-10.51;82.30
3250;BME280;1637;42.020;23.992;2023-02-08T02:47:36;94135.84;;;-10.55;81.64
3250;BME280;1637;42.020;23.992;2023-02-08T02:50:11;94142.72;;;-10.66;81.28
3250;BME280;1637;42.020;23.992;2023-02-08T02:52:44;94145.53;;;-10.84;81.93
3250;BME280;1637;42.020;23.992;2023-02-08T02:55:15;94156.91;;;-10.85;82.75
3250;BME280;1637;42.020;23.992;2023-02-08T02:57:45;94147.03;;;-10.88;82.47
3250;BME280;1637;42.020;23.992;2023-02-08T03:00:20;94141.06;;;-11.05;82.92
3250;BME280;1637;42.020;23.992;2023-02-08T03:02:49;94145.59;;;-11.13;82.89
3250;BME280;1637;42.020;23.992;2023-02-08T03:05:16;94155.25;;;-11.08;83.45
3250;BME280;1637;42.020;23.992;2023-02-08T03:08:11;94164.34;;;-11.05;82.94
3250;BME280;1637;42.020;23.992;2023-02-08T03:11:11;94167.72;;;-11.05;82.88
3250;BME280;1637;42.020;23.992;2023-02-08T03:13:58;94162.88;;;-11.01;82.34
3250;BME280;1637;42.020;23.992;2023-02-08T03:16:33;94161.66;;;-11.11;83.67
3250;BME280;1637;42.020;23.992;2023-02-08T03:19:07;94167.63;;;-11.10;82.99
3250;BME280;1637;42.020;23.992;2023-02-08T03:21:39;94175.97;;;-11.20;83.97
3250;BME280;1637;42.020;23.992;2023-02-08T03:24:16;94176.88;;;-10.97;83.53
3250;BME280;1637;42.020;23.992;2023-02-08T03:26:52;94172.16;;;-11.00;82.92
3250;BME280;1637;42.020;23.992;2023-02-08T03:29:27;94174.38;;;-11.09;83.63
3250;BME280;1637;42.020;23.992;2023-02-08T03:31:59;94183.56;;;-11.01;84.00
3250;BME280;1637;42.020;23.992;2023-02-08T03:34:34;94195.38;;;-11.05;83.67
3250;BME280;1637;42.020;23.992;2023-02-08T03:37:10;94189.00;;;-11.15;83.66
3250;BME280;1637;42.020;23.992;2023-02-08T03:39:40;94188.78;;;-11.13;83.78
3250;BME280;1637;42.020;23.992;2023-02-08T03:42:12;94194.28;;;-11.09;82.70
3250;BME280;1637;42.020;23.992;2023-02-08T03:44:44;94197.75;;;-11.04;82.87
3250;BME280;1637;42.020;23.992;2023-02-08T03:47:16;94188.53;;;-11.12;83.22
3250;BME280;1637;42.020;23.992;2023-02-08T03:49:48;94185.03;;;-11.05;82.92
3250;BME280;1637;42.020;23.992;2023-02-08T03:52:16;94186.25;;;-11.25;83.81
3250;BME280;1637;42.020;23.992;2023-02-08T03:55:02;94198.53;;;-11.03;83.68
3250;BME280;1637;42.020;23.992;2023-02-08T03:57:33;94204.38;;;-11.08;83.37
3250;BME280;1637;42.020;23.992;2023-02-08T04:00:05;94198.44;;;-10.92;83.52
3250;BME280;1637;42.020;23.992;2023-02-08T04:02:36;94204.97;;;-10.89;82.77
3250;BME280;1637;42.020;23.992;2023-02-08T04:05:06;94207.19;;;-10.81;83.35
3250;BME280;1637;42.020;23.992;2023-02-08T04:07:33;94208.88;;;-10.87;83.18
3250;BME280;1637;42.020;23.992;2023-02-08T04:10:01;94203.41;;;-10.73;83.16
3250;BME280;1637;42.020;23.992;2023-02-08T04:12:28;94208.81;;;-10.75;83.27
3250;BME280;1637;42.020;23.992;2023-02-08T04:14:55;94195.97;;;-10.70;82.15
3250;BME280;1637;42.020;23.992;2023-02-08T04:17:22;94192.34;;;-10.86;81.82
3250;BME280;1637;42.020;23.992;2023-02-08T04:19:48;94210.22;;;-10.67;81.97
3250;BME280;1637;42.020;23.992;2023-02-08T04:22:17;94210.38;;;-10.74;82.29
3250;BME280;1637;42.020;23.992;2023-02-08T04:24:43;94207.31;;;-10.71;81.70
3250;BME280;1637;42.020;23.992;2023-02-08T04:27:10;94209.78;;;-10.64;81.71
3250;BME280;1637;42.020;23.992;2023-02-08T04:29:37;94208.28;;;-10.60;82.12
3250;BME280;1637;42.020;23.992;2023-02-08T04:32:04;94210.53;;;-10.47;82.14
3250;BME280;1637;42.020;23.992;2023-02-08T04:34:36;94209.31;;;-10.61;81.74
3250;BME280;1637;42.020;23.992;2023-02-08T04:37:02;94217.53;;;-10.64;81.45
3250;BME280;1637;42.020;23.992;2023-02-08T04:39:31;94252.03;;;-10.59;81.31
3250;BME280;1637;42.020;23.992;2023-02-08T04:41:59;94202.59;;;-10.91;81.69
3250;BME280;1637;42.020;23.992;2023-02-08T04:44:26;94228.59;;;-10.69;81.89
3250;BME280;1637;42.020;23.992;2023-02-08T04:46:52;94235.97;;;-10.61;81.61
3250;BME280;1637;42.020;23.992;2023-02-08T04:49:19;94242.88;;;-10.50;82.12
3250;BME280;1637;42.020;23.992;2023-02-08T04:51:46;94246.66;;;-10.40;81.81
3250;BME280;1637;42.020;23.992;2023-02-08T04:54:13;94247.91;;;-10.43;80.90
3250;BME280;1637;42.020;23.992;2023-02-08T04:56:41;94252.63;;;-10.40;81.48
3250;BME280;1637;42.020;23.992;2023-02-08T04:59:08;94253.78;;;-10.31;80.23
3250;BME280;1637;42.020;23.992;2023-02-08T05:01:35;94256.56;;;-10.16;79.74
3250;BME280;1637;42.020;23.992;2023-02-08T05:04:02;94257.09;;;-10.19;80.24
3250;BME280;1637;42.020;23.992;2023-02-08T05:06:29;94261.31;;;-10.29;80.43
3250;BME280;1637;42.020;23.992;2023-02-08T05:08:56;94257.47;;;-10.44;80.97
3250;BME280;1637;42.020;23.992;2023-02-08T05:11:24;94259.03;;;-10.26;80.17
3250;BME280;1637;42.020;23.992;2023-02-08T05:13:52;94261.84;;;-10.27;80.19
3250;BME280;1637;42.020;23.992;2023-02-08T05:16:19;94266.19;;;-9.94;80.20
3250;BME280;1637;42.020;23.992;2023-02-08T05:18:46;94274.84;;;-10.06;80.15
3250;BME280;1637;42.020;23.992;2023-02-08T05:21:13;94274.69;;;-9.99;80.60
3250;BME280;1637;42.020;23.992;2023-02-08T05:23:40;94241.16;;;-10.06;79.66
3250;BME280;1637;42.020;23.992;2023-02-08T05:26:08;94269.66;;;-9.89;80.37
3250;BME280;1637;42.020;23.992;2023-02-08T05:28:35;94277.81;;;-9.80;79.13
3250;BME280;1637;42.020;23.992;2023-02-08T05:31:09;94278.66;;;-9.91;79.89
3250;BME280;1637;42.020;23.992;2023-02-08T05:33:36;94278.19;;;-9.88;79.59
3250;BME280;1637;42.020;23.992;2023-02-08T05:36:03;94293.84;;;-9.83;79.27
3250;BME280;1637;42.020;23.992;2023-02-08T05:38:30;94298.03;;;-9.60;79.06
3250;BME280;1637;42.020;23.992;2023-02-08T05:40:57;94293.09;;;-9.62;78.58
3250;BME280;1637;42.020;23.992;2023-02-08T05:43:24;94293.50;;;-9.70;78.53
3250;BME280;1637;42.020;23.992;2023-02-08T05:45:51;94308.88;;;-9.63;78.09
3250;BME280;1637;42.020;23.992;2023-02-08T05:48:19;94305.59;;;-9.37;80.93
3250;BME280;1637;42.020;23.992;2023-02-08T05:50:46;94295.88;;;-9.47;78.55
3250;BME280;1637;42.020;23.992;2023-02-08T05:53:13;94305.28;;;-9.62;77.82
3250;BME280;1637;42.020;23.992;2023-02-08T05:55:43;94304.88;;;-9.32;77.95
3250;BME280;1637;42.020;23.992;2023-02-08T05:58:10;94300.94;;;-9.35;78.36
3250;BME280;1637;42.020;23.992;2023-02-08T06:00:37;94307.28;;;-9.26;77.94
3250;BME280;1637;42.020;23.992;2023-02-08T06:03:04;94309.28;;;-9.11;77.74
3250;BME280;1637;42.020;23.992;2023-02-08T06:05:33;94202.13;;;-9.55;77.92
3250;BME280;1637;42.020;23.992;2023-02-08T06:08:00;94296.72;;;-8.76;77.24
3250;BME280;1637;42.020;23.992;2023-02-08T06:10:27;94300.78;;;-8.58;76.17
3250;BME280;1637;42.020;23.992;2023-02-08T06:12:54;94304.84;;;-8.40;75.61
3250;BME280;1637;42.020;23.992;2023-02-08T06:15:20;94307.00;;;-8.32;75.17
3250;BME280;1637;42.020;23.992;2023-02-08T06:17:47;94282.38;;;-8.51;74.50
3250;BME280;1637;42.020;23.992;2023-02-08T06:20:14;94309.66;;;-8.54;74.98
3250;BME280;1637;42.020;23.992;2023-02-08T06:22:42;94326.63;;;-8.68;75.48
3250;BME280;1637;42.020;23.992;2023-02-08T06:25:09;94325.44;;;-8.82;77.33
3250;BME280;1637;42.020;23.992;2023-02-08T06:27:36;94333.06;;;-8.97;77.24
3250;BME280;1637;42.020;23.992;2023-02-08T06:30:03;94325.22;;;-9.03;77.00
3250;BME280;1637;42.020;23.992;2023-02-08T06:32:30;94325.22;;;-8.81;76.17
3250;BME280;1637;42.020;23.992;2023-02-08T06:34:57;94333.38;;;-8.94;76.74
3250;BME280;1637;42.020;23.992;2023-02-08T06:37:24;94324.03;;;-8.95;76.77
3250;BME280;1637;42.020;23.992;2023-02-08T06:39:52;94331.84;;;-8.90;77.24
3250;BME280;1637;42.020;23.992;2023-02-08T06:42:19;94330.81;;;-8.89;77.51
3250;BME280;1637;42.020;23.992;2023-02-08T06:44:46;94342.28;;;-8.85;77.50
3250;BME280;1637;42.020;23.992;2023-02-08T06:47:14;94342.41;;;-8.75;77.94
3250;BME280;1637;42.020;23.992;2023-02-08T06:49:41;94339.03;;;-8.48;77.11
3250;BME280;1637;42.020;23.992;2023-02-08T06:52:08;94343.63;;;-8.34;76.16
3250;BME280;1637;42.020;23.992;2023-02-08T06:54:35;94333.94;;;-8.65;76.54
3250;BME280;1637;42.020;23.992;2023-02-08T06:57:03;94329.91;;;-8.51;76.32
3250;BME280;1637;42.020;23.992;2023-02-08T06:59:31;94329.50;;;-8.43;76.40
3250;BME280;1637;42.020;23.992;2023-02-08T07:01:58;94320.38;;;-8.45;76.00
3250;BME280;1637;42.020;23.992;2023-02-08T07:04:25;94330.72;;;-8.18;76.11
3250;BME280;1637;42.020;23.992;2023-02-08T07:06:52;94342.16;;;-7.87;76.37
3250;BME280;1637;42.020;23.992;2023-02-08T07:09:18;94345.88;;;-7.78;76.99
3250;BME280;1637;42.020;23.992;2023-02-08T07:11:45;94344.63;;;-8.03;75.94
3250;BME280;1637;42.020;23.992;2023-02-08T07:14:14;94337.38;;;-8.01;75.72
3250;BME280;1637;42.020;23.992;2023-02-08T07:16:41;94340.50;;;-7.99;76.47
3250;BME280;1637;42.020;23.992;2023-02-08T07:19:08;94335.38;;;-7.88;76.64
3250;BME280;1637;42.020;23.992;2023-02-08T07:21:34;94341.50;;;-7.68;76.06
3250;BME280;1637;42.020;23.992;2023-02-08T07:24:01;94298.69;;;-7.08;74.66
3250;BME280;1637;42.020;23.992;2023-02-08T07:26:28;94338.00;;;-6.11;70.12
3250;BME280;1637;42.020;23.992;2023-02-08T07:28:57;94337.69;;;-6.45;70.53
3250;BME280;1637;42.020;23.992;2023-02-08T07:31:25;94342.91;;;-7.13;72.70
3250;BME280;1637;42.020;23.992;2023-02-08T07:33:52;94340.81;;;-7.16;73.61
3250;BME280;1637;42.020;23.992;2023-02-08T07:36:19;94348.13;;;-7.13;74.16
3250;BME280;1637;42.020;23.992;2023-02-08T07:38:46;94350.69;;;-7.18;73.99
3250;BME280;1637;42.020;23.992;2023-02-08T07:41:13;94339.97;;;-7.21;73.58
3250;BME280;1637;42.020;23.992;2023-02-08T07:43:40;94329.25;;;-7.35;74.23
3250;BME280;1637;42.020;23.992;2023-02-08T07:46:08;94338.88;;;-7.36;74.51
3250;BME280;1637;42.020;23.992;2023-02-08T07:48:37;94346.88;;;-7.00;76.02
3250;BME280;1637;42.020;23.992;2023-02-08T07:51:04;94339.81;;;-7.05;77.62
3250;BME280;1637;42.020;23.992;2023-02-08T07:53:31;94274.50;;;-7.55;78.61
3250;BME280;1637;42.020;23.992;2023-02-08T07:55:58;94343.03;;;-6.82;77.54
3250;BME280;1637;42.020;23.992;2023-02-08T07:58:26;94342.34;;;-6.52;76.73
3250;BME280;1637;42.020;23.992;2023-02-08T08:00:53;94322.78;;;-6.60;75.96
3250;BME280;1637;42.020;23.992;2023-02-08T08:03:20;94336.44;;;-6.12;74.68
3250;BME280;1637;42.020;23.992;2023-02-08T08:05:49;94349.66;;;-3.94;69.32
3250;BME280;1637;42.020;23.992;2023-02-08T08:08:16;94349.56;;;-4.18;67.14
3250;BME280;1637;42.020;23.992;2023-02-08T08:10:43;94355.09;;;-4.94;69.11
3250;BME280;1637;42.020;23.992;2023-02-08T08:13:10;94358.81;;;-5.05;70.18
3250;BME280;1637;42.020;23.992;2023-02-08T08:15:37;94355.69;;;-5.12;70.44
3250;BME280;1637;42.020;23.992;2023-02-08T08:18:04;94364.69;;;-4.69;70.23
3250;BME280;1637;42.020;23.992;2023-02-08T08:20:31;94365.34;;;-5.12;70.75
3250;BME280;1637;42.020;23.992;2023-02-08T08:23:00;94362.94;;;-4.19;69.64
3250;BME280;1637;42.020;23.992;2023-02-08T08:25:27;94365.94;;;-1.53;64.03
3250;BME280;1637;42.020;23.992;2023-02-08T08:27:54;94363.88;;;1.25;54.55
3250;BME280;1637;42.020;23.992;2023-02-08T08:30:21;94370.53;;;0.91;53.07
3250;BME280;1637;42.020;23.992;2023-02-08T08:32:48;94373.38;;;0.73;54.49
3250;BME280;1637;42.020;23.992;2023-02-08T08:35:14;94377.78;;;0.63;55.08
3250;BME280;1637;42.020;23.992;2023-02-08T08:37:41;94378.81;;;0.76;53.80
3250;BME280;1637;42.020;23.992;2023-02-08T08:40:10;94365.56;;;0.09;54.72
3250;BME280;1637;42.020;23.992;2023-02-08T08:42:37;94369.88;;;0.41;54.82
3250;BME280;1637;42.020;23.992;2023-02-08T08:45:06;94378.69;;;-0.54;56.60
3250;BME280;1637;42.020;23.992;2023-02-08T08:47:33;94381.72;;;-1.91;61.13
3250;BME280;1637;42.020;23.992;2023-02-08T08:50:00;94389.97;;;-2.45;63.27
3250;BME280;1637;42.020;23.992;2023-02-08T08:52:27;94380.47;;;-3.47;66.17
3250;BME280;1637;42.020;23.992;2023-02-08T08:54:53;94383.09;;;-3.81;68.18
3250;BME280;1637;42.020;23.992;2023-02-08T08:57:21;94385.38;;;-3.74;68.46
3250;BME280;1637;42.020;23.992;2023-02-08T08:59:48;94386.69;;;-2.80;67.77
3250;BME280;1637;42.020;23.992;2023-02-08T09:02:15;94386.75;;;-2.85;68.03
3250;BME280;1637;42.020;23.992;2023-02-08T09:04:42;94348.97;;;-2.84;66.94
3250;BME280;1637;42.020;23.992;2023-02-08T09:07:09;94387.94;;;-2.72;69.01
3250;BME280;1637;42.020;23.992;2023-02-08T09:09:36;94373.41;;;-2.64;68.29
3250;BME280;1637;42.020;23.992;2023-02-08T09:12:03;94384.53;;;-2.06;67.84
3250;BME280;1637;42.020;23.992;2023-02-08T09:14:32;94392.13;;;-1.86;65.20
3250;BME280;1637;42.020;23.992;2023-02-08T09:16:59;94385.66;;;-1.56;65.18
3250;BME280;1637;42.020;23.992;2023-02-08T09:19:26;94384.97;;;-1.80;65.75
3250;BME280;1637;42.020;23.992;2023-02-08T09:21:53;94388.44;;;-1.66;65.54
3250;BME280;1637;42.020;23.992;2023-02-08T09:24:22;94392.34;;;-1.63;64.05
3250;BME280;1637;42.020;23.992;2023-02-08T09:26:49;94397.16;;;-1.52;64.66
3250;BME280;1637;42.020;23.992;2023-02-08T09:29:15;94394.56;;;-1.70;63.91
3250;BME280;1637;42.020;23.992;2023-02-08T09:31:44;94392.84;;;-1.99;63.62
3250;BME280;1637;42.020;23.992;2023-02-08T09:34:10;94393.25;;;-1.54;60.32
3250;BME280;1637;42.020;23.992;2023-02-08T09:36:38;94361.09;;;-2.21;60.74
3250;BME280;1637;42.020;23.992;2023-02-08T09:39:13;94387.28;;;-2.16;60.50
3250;BME280;1637;42.020;23.992;2023-02-08T09:44:44;94389.19;;;-2.22;63.22
3250;BME280;1637;42.020;23.992;2023-02-08T09:47:19;94388.81;;;-2.34;62.91
3250;BME280;1637;42.020;23.992;2023-02-08T09:49:54;94386.94;;;-2.52;63.34
3250;BME280;1637;42.020;23.992;2023-02-08T09:52:27;94393.09;;;-2.67;62.34
3250;BME280;1637;42.020;23.992;2023-02-08T09:55:00;94386.31;;;-2.92;62.56
3250;BME280;1637;42.020;23.992;2023-02-08T09:57:31;94393.53;;;-2.55;60.65
3250;BME280;1637;42.020;23.992;2023-02-08T10:00:05;94396.78;;;-2.44;61.04
3250;BME280;1637;42.020;23.992;2023-02-08T10:02:38;94386.03;;;-2.66;61.30
3250;BME280;1637;42.020;23.992;2023-02-08T10:05:10;94384.03;;;-2.74;61.16
3250;BME280;1637;42.020;23.992;2023-02-08T10:07:38;94382.97;;;-1.51;59.02
3250;BME280;1637;42.020;23.992;2023-02-08T10:10:11;94383.66;;;-1.26;58.32
3250;BME280;1637;42.020;23.992;2023-02-08T10:12:46;94383.81;;;-0.90;55.36
3250;BME280;1637;42.020;23.992;2023-02-08T10:15:22;94371.69;;;-1.51;57.51
3250;BME280;1637;42.020;23.992;2023-02-08T10:18:10;94368.91;;;-1.60;56.74
3250;BME280;1637;42.020;23.992;2023-02-08T10:20:51;94364.28;;;-1.17;55.53
3250;BME280;1637;42.020;23.992;2023-02-08T10:23:37;94367.09;;;-0.40;54.85
3250;BME280;1637;42.020;23.992;2023-02-08T10:26:13;94370.66;;;-1.04;54.43
3250;BME280;1637;42.020;23.992;2023-02-08T10:32:01;94365.09;;;1.50;48.15
3250;BME280;1637;42.020;23.992;2023-02-08T10:34:39;94366.50;;;0.27;50.10
3250;BME280;1637;42.020;23.992;2023-02-08T10:37:12;94365.53;;;-0.41;48.04
3250;BME280;1637;42.020;23.992;2023-02-08T10:39:40;94360.78;;;0.47;47.57
3250;BME280;1637;42.020;23.992;2023-02-08T10:42:12;94355.59;;;0.20;46.55
3250;BME280;1637;42.020;23.992;2023-02-08T10:44:52;94352.75;;;0.52;46.44
3250;BME280;1637;42.020;23.992;2023-02-08T10:47:32;94353.66;;;0.70;46.07
3250;BME280;1637;42.020;23.992;2023-02-08T10:50:05;94351.59;;;0.45;45.48
3250;BME280;1637;42.020;23.992;2023-02-08T10:52:37;94364.31;;;0.87;45.38
3250;BME280;1637;42.020;23.992;2023-02-08T10:55:12;94352.88;;;0.69;45.21
3250;BME280;1637;42.020;23.992;2023-02-08T10:57:39;94358.31;;;-0.35;48.37
3250;BME280;1637;42.020;23.992;2023-02-08T11:00:10;94368.06;;;0.28;46.80
3250;BME280;1637;42.020;23.992;2023-02-08T11:02:40;94467.44;;;-0.27;46.58
3250;BME280;1637;42.020;23.992;2023-02-08T11:05:12;94354.28;;;-1.01;47.93
3250;BME280;1637;42.020;23.992;2023-02-08T11:07:39;94353.91;;;-0.12;48.37
3250;BME280;1637;42.020;23.992;2023-02-08T11:10:20;94352.97;;;-0.71;46.97
3250;BME280;1637;42.020;23.992;2023-02-08T11:12:54;94306.88;;;-0.05;46.63
3250;BME280;1637;42.020;23.992;2023-02-08T11:15:23;94346.31;;;0.89;45.54
3250;BME280;1637;42.020;23.992;2023-02-08T11:17:57;94347.78;;;1.35;45.22
3250;BME280;1637;42.020;23.992;2023-02-08T11:20:31;94344.66;;;-0.37;46.79
3250;BME280;1637;42.020;23.992;2023-02-08T11:23:01;94328.59;;;-0.36;48.65
3250;BME280;1637;42.020;23.992;2023-02-08T11:25:36;94340.84;;;-0.17;48.50
3250;BME280;1637;42.020;23.992;2023-02-08T11:28:04;94276.63;;;-0.30;48.21
3250;BME280;1637;42.020;23.992;2023-02-08T11:30:54;94333.63;;;0.47;45.41
3250;BME280;1637;42.020;23.992;2023-02-08T11:33:21;94334.09;;;1.24;46.22
3250;BME280;1637;42.020;23.992;2023-02-08T11:36:03;94329.19;;;1.00;45.54
3250;BME280;1637;42.020;23.992;2023-02-08T11:38:33;94342.91;;;0.66;45.85
3250;BME280;1637;42.020;23.992;2023-02-08T11:41:03;94335.50;;;0.68;46.11
3250;BME280;1637;42.020;23.992;2023-02-08T11:43:32;94340.16;;;0.72;45.71
3250;BME280;1637;42.020;23.992;2023-02-08T11:46:01;94352.06;;;0.60;44.34
3250;BME280;1637;42.020;23.992;2023-02-08T11:48:42;94328.91;;;1.11;43.68
3250;BME280;1637;42.020;23.992;2023-02-08T11:51:22;94326.47;;;0.39;44.70
3250;BME280;1637;42.020;23.992;2023-02-08T11:53:50;94318.72;;;0.64;45.09
3250;BME280;1637;42.020;23.992;2023-02-08T11:56:19;94315.81;;;-0.28;44.96
3250;BME280;1637;42.020;23.992;2023-02-08T11:59:04;94335.56;;;-0.04;44.19
3250;BME280;1637;42.020;23.992;2023-02-08T12:01:33;94341.25;;;-0.24;42.77
3250;BME280;1637;42.020;23.992;2023-02-08T12:04:03;94340.66;;;-0.21;43.28
3250;BME280;1637;42.020;23.992;2023-02-08T12:07:11;94336.19;;;-0.34;45.23
3250;BME280;1637;42.020;23.992;2023-02-08T12:10:07;94330.66;;;-0.46;45.83
3250;BME280;1637;42.020;23.992;2023-02-08T12:12:54;94343.03;;;-0.47;45.39
3250;BME280;1637;42.020;23.992;2023-02-08T12:15:30;94340.50;;;-0.52;45.43
3250;BME280;1637;42.020;23.992;2023-02-08T12:18:15;94344.69;;;-0.51;45.39
3250;BME280;1637;42.020;23.992;2023-02-08T12:20:47;94343.41;;;-0.26;45.60
3250;BME280;1637;42.020;23.992;2023-02-08T12:23:48;94344.16;;;-0.12;45.23
3250;BME280;1637;42.020;23.992;2023-02-08T12:26:23;94333.66;;;-0.53;46.12
3250;BME280;1637;42.020;23.992;2023-02-08T12:29:11;94344.56;;;-0.32;45.68
3250;BME280;1637;42.020;23.992;2023-02-08T12:31:53;94351.91;;;0.07;44.98
3250;BME280;1637;42.020;23.992;2023-02-08T12:34:26;94350.22;;;-0.25;45.39
3250;BME280;1637;42.020;23.992;2023-02-08T12:37:16;94337.97;;;-0.71;47.55
3250;BME280;1637;42.020;23.992;2023-02-08T12:40:18;94338.44;;;-0.41;46.67
3250;BME280;1637;42.020;23.992;2023-02-08T12:43:12;94334.03;;;-0.32;47.02
3250;BME280;1637;42.020;23.992;2023-02-08T12:46:16;94352.34;;;-0.13;45.20
3250;BME280;1637;42.020;23.992;2023-02-08T12:48:59;94342.94;;;-0.42;46.21
3250;BME280;1637;42.020;23.992;2023-02-08T12:51:36;94341.38;;;-0.70;46.18
3250;BME280;1637;42.020;23.992;2023-02-08T12:54:09;94346.53;;;-0.79;46.75
3250;BME280;1637;42.020;23.992;2023-02-08T12:56:40;94346.81;;;-0.53;46.60
3250;BME280;1637;42.020;23.992;2023-02-08T12:59:20;94347.09;;;-0.27;45.70
3250;BME280;1637;42.020;23.992;2023-02-08T13:01:49;94349.66;;;-0.49;45.50
3250;BME280;1637;42.020;23.992;2023-02-08T13:04:22;94349.66;;;-0.22;44.75
3250;BME280;1637;42.020;23.992;2023-02-08T13:06:55;94348.66;;;-0.81;46.08
3250;BME280;1637;42.020;23.992;2023-02-08T13:09:34;94352.44;;;-0.05;45.04
3250;BME280;1637;42.020;23.992;2023-02-08T13:12:12;94350.59;;;-0.18;44.59
3250;BME280;1637;42.020;23.992;2023-02-08T13:14:44;94351.53;;;0.14;45.82
3250;BME280;1637;42.020;23.992;2023-02-08T13:17:15;94345.56;;;0.08;44.42
3250;BME280;1637;42.020;23.992;2023-02-08T13:19:49;94353.00;;;0.06;44.15
3250;BME280;1637;42.020;23.992;2023-02-08T13:22:18;94350.53;;;0.10;44.16
3250;BME280;1637;42.020;23.992;2023-02-08T13:24:46;94354.59;;;0.52;44.88
3250;BME280;1637;42.020;23.992;2023-02-08T13:27:17;94356.94;;;0.76;43.58
3250;BME280;1637;42.020;23.992;2023-02-08T13:29:45;94355.94;;;0.41;44.69
3250;BME280;1637;42.020;23.992;2023-02-08T13:32:17;94352.66;;;-0.28;46.17
3250;BME280;1637;42.020;23.992;2023-02-08T13:34:49;94357.75;;;-0.46;47.22
3250;BME280;1637;42.020;23.992;2023-02-08T13:37:19;94362.22;;;-0.74;47.71
3250;BME280;1637;42.020;23.992;2023-02-08T13:39:47;94367.34;;;-0.82;48.32